Airfield :
LOGIN :

Register | Disclaimer

   EN    FR    IT 

 










Legend :    VFR   Marginal VFR   IFR   Intensive IFR   Very Intensive IFR
Visi :
Ceiling :
>= 8 km
>= 3000ft
5 to 8 km
1000 to 3000 ft
1500m to 5 km
500 to 1000 ft
800 to 1500m
200 to 500 ft
< 800m
< 200 ft
Symbols :   Thunderstorms  Fog  Heavy snow  Heavy precipitations  Wind > 20 kt
SIGMETs :     Misc.  Thunderstorms  Icing  Turbulence  Mountain Waves  Volcanic Ashes






- Airport Elevation : 230 ft


ETHB - Buckeburg Army

CURRENT METAR :
  • 280420Z 26006KT 9999 FEW007 BKN010 BKN070 12/10 Q1016 GRN BLU TEMPO GRN

EXPIRED METARs :
  • 280357Z 26008KT 9999 FEW007 SCT010 BKN027 12/10 Q1016 BLU
  • 280320Z 25006KT 9999 FEW008 BKN010 12/10 Q1016 GRN
  • 280220Z 24008KT 9999 FEW011 BKN038 BKN070 13/11 Q1016 BLU
  • 280120Z 27006KT 9999 SCT009 BKN031 13/12 Q1015 BLU
  • 280020Z 29005KT 9999 BKN009 BKN023 13/12 Q1015 GRN

TAF TAF ETHB
Valid from the 28 at 05:00 until the 28 at 14:00 UTC


280426Z 2805/2814 27008KT 9999 NSW FEW012 BKN040
TEMPO 2805/2808 28010KT 5000 -SHRA BKN010 BKN020TCU
TEMPO 2808/2814 28010KT 5000 -SHRA SCT015 BKN020TCU



MET'MAP, your aeronautical weather chart ! - Copyright ORBIFLY December 2007 - Disclaimer

ORBIFLY MET'MAP TEAM :

Programming & Development : Alexandra Zaïnal
Original concept : Baudouin d'Aumeries
Technical & hardware support : Manuel Goepfert
Assistance : Marc-Olivier Méhu




SOURCES & CREDITS :

   NOAA